Time;durP1;ratioP1;P1;durP2;ratioP2;P2;SDS_P1;SDS_P2;PMS_P1;PMS_P2;Temp;Humidity;BMP_temperature;BMP_pressure;BME280_temperature;BME280_humidity;BME280_pressure;Samples;Min_cycle;Max_cycle;Signal;HPM_P1;HPM_P2
2021/01/17 00:00:29;;;;;;;38.67;21.10;;;;;;;;;;6211216;23;20025;-83
2021/01/17 00:02:56;;;;;;;43.88;21.25;;;;;;;;;;6210576;23;20017;-83
2021/01/17 00:05:27;;;;;;;39.63;20.67;;;;;;;;;;6186515;23;20189;-83
2021/01/17 00:07:56;;;;;;;38.65;19.98;;;;;;;;;;6212415;23;20104;-83
2021/01/17 00:10:23;;;;;;;36.85;20.73;;;;;;;;;;6184769;23;20025;-83
2021/01/17 00:12:53;;;;;;;37.72;20.08;;;;;;;;;;6213922;23;20035;-83
2021/01/17 00:15:25;;;;;;;40.08;20.85;;;;;;;;;;6187310;23;20024;-84
2021/01/17 00:17:52;;;;;;;42.05;21.42;;;;;;;;;;6187021;23;20025;-83
2021/01/17 00:20:20;;;;;;;36.30;21.73;;;;;;;;;;6187503;23;20031;-83
2021/01/17 00:22:56;;;;;;;35.17;19.38;;;;;;;;;;6213601;23;20020;-84
2021/01/17 00:25:27;;;;;;;36.58;20.70;;;;;;;;;;6189771;23;20028;-84
2021/01/17 00:27:59;;;;;;;45.50;20.98;;;;;;;;;;6215965;23;20121;-83
2021/01/17 00:30:29;;;;;;;35.65;18.55;;;;;;;;;;6216746;23;20072;-84
2021/01/17 00:32:59;;;;;;;38.97;20.13;;;;;;;;;;6189365;23;20035;-84
2021/01/17 00:35:29;;;;;;;40.35;19.75;;;;;;;;;;6190910;23;20446;-83
2021/01/17 00:37:57;;;;;;;35.90;20.45;;;;;;;;;;6225717;23;20039;-84
2021/01/17 00:40:24;;;;;;;42.13;21.48;;;;;;;;;;6236294;23;20028;-84
2021/01/17 00:42:51;;;;;;;36.63;19.95;;;;;;;;;;6209486;23;20017;-84
2021/01/17 00:45:18;;;;;;;37.25;21.00;;;;;;;;;;6220677;23;20029;-83
2021/01/17 00:47:48;;;;;;;38.47;21.23;;;;;;;;;;6217815;23;20042;-84
2021/01/17 00:50:15;;;;;;;45.40;21.50;;;;;;;;;;6193986;23;20383;-84
2021/01/17 00:52:42;;;;;;;39.75;21.48;;;;;;;;;;6208322;23;20107;-83
2021/01/17 00:55:09;;;;;;;37.67;21.10;;;;;;;;;;6207349;23;20028;-83
2021/01/17 00:57:35;;;;;;;38.80;21.10;;;;;;;;;;6217826;23;20028;-83
2021/01/17 01:00:11;;;;;;;37.95;20.95;;;;;;;;;;6217644;23;20260;-83
2021/01/17 01:02:40;;;;;;;35.60;19.42;;;;;;;;;;6215869;23;20075;-84
2021/01/17 01:05:07;;;;;;;40.45;21.75;;;;;;;;;;6188205;23;20075;-83
2021/01/17 01:07:33;;;;;;;37.40;20.55;;;;;;;;;;6215938;23;20044;-84
2021/01/17 01:09:59;;;;;;;38.03;22.02;;;;;;;;;;6215957;23;20025;-83
2021/01/17 01:12:25;;;;;;;42.58;21.13;;;;;;;;;;6215776;23;20327;-83
2021/01/17 01:14:52;;;;;;;36.92;20.08;;;;;;;;;;6190078;23;20056;-83
2021/01/17 01:17:18;;;;;;;35.13;20.30;;;;;;;;;;6189407;23;20078;-83
2021/01/17 01:19:45;;;;;;;37.72;21.85;;;;;;;;;;6216395;23;20355;-84
2021/01/17 01:22:11;;;;;;;40.92;22.83;;;;;;;;;;6191525;23;20086;-84
2021/01/17 01:24:37;;;;;;;43.58;22.02;;;;;;;;;;6189625;23;20298;-83
2021/01/17 01:27:06;;;;;;;38.35;21.40;;;;;;;;;;6217413;23;20039;-83
2021/01/17 01:29:33;;;;;;;42.50;21.85;;;;;;;;;;6188994;23;20032;-84
2021/01/17 01:31:59;;;;;;;38.45;20.80;;;;;;;;;;6187620;23;20021;-84
2021/01/17 01:34:29;;;;;;;45.53;22.30;;;;;;;;;;6188798;23;20035;-84
2021/01/17 01:36:57;;;;;;;40.42;21.65;;;;;;;;;;6191107;23;20028;-84
2021/01/17 01:39:24;;;;;;;39.67;21.38;;;;;;;;;;6216400;23;20029;-84
2021/01/17 01:41:50;;;;;;;43.95;23.52;;;;;;;;;;6189075;23;20306;-84
2021/01/17 01:44:17;;;;;;;47.67;22.05;;;;;;;;;;6215781;23;20035;-83
2021/01/17 01:46:55;;;;;;;36.53;21.35;;;;;;;;;;6190818;23;20044;-83
2021/01/17 01:49:22;;;;;;;43.53;22.35;;;;;;;;;;6191456;23;20105;-84
2021/01/17 01:51:49;;;;;;;44.90;24.35;;;;;;;;;;6217878;23;20027;-84
2021/01/17 01:54:15;;;;;;;41.30;21.60;;;;;;;;;;6217895;23;20032;-84
2021/01/17 01:56:44;;;;;;;40.85;22.15;;;;;;;;;;6218639;23;20029;-84
2021/01/17 01:59:16;;;;;;;37.75;20.88;;;;;;;;;;6219778;23;20028;-82
2021/01/17 02:01:47;;;;;;;35.88;21.90;;;;;;;;;;6218122;23;20385;-84
2021/01/17 02:04:16;;;;;;;39.22;20.30;;;;;;;;;;6231720;23;20031;-84
2021/01/17 02:07:04;;;;;;;34.67;21.20;;;;;;;;;;6221859;23;20047;-83
2021/01/17 02:09:30;;;;;;;35.53;20.52;;;;;;;;;;6248018;23;20122;-84
2021/01/17 02:12:16;;;;;;;40.45;22.25;;;;;;;;;;6219881;23;20030;-84
2021/01/17 02:14:52;;;;;;;42.55;23.00;;;;;;;;;;6250341;23;20078;-84
2021/01/17 02:17:18;;;;;;;;;;;;;;;;;;6240415;23;20067;-84
2021/01/17 02:19:50;;;;;;;46.50;22.77;;;;;;;;;;6239850;23;19903;-84
2021/01/17 02:22:21;;;;;;;39.75;21.17;;;;;;;;;;6264545;22;20066;-84
2021/01/17 02:25:00;;;;;;;37.13;22.27;;;;;;;;;;6262989;22;20310;-84
2021/01/17 02:27:26;;;;;;;37.92;20.25;;;;;;;;;;6247674;23;20028;-83
2021/01/17 02:29:53;;;;;;;36.90;21.38;;;;;;;;;;6221418;23;20032;-84
2021/01/17 02:32:20;;;;;;;41.70;21.92;;;;;;;;;;6220100;23;20349;-84
2021/01/17 02:34:48;;;;;;;44.53;25.75;;;;;;;;;;6219227;23;20048;-83
2021/01/17 02:37:14;;;;;;;39.65;21.90;;;;;;;;;;6219904;23;20051;-84
2021/01/17 02:39:53;;;;;;;44.38;23.38;;;;;;;;;;6244569;23;20031;-84
2021/01/17 02:42:19;;;;;;;41.20;21.75;;;;;;;;;;6247104;23;20024;-83
2021/01/17 02:44:46;;;;;;;41.25;21.73;;;;;;;;;;6220343;23;20020;-84
2021/01/17 02:47:14;;;;;;;36.03;21.45;;;;;;;;;;6219463;23;20024;-84
2021/01/17 02:49:41;;;;;;;40.95;21.38;;;;;;;;;;6270642;22;20028;-83
2021/01/17 02:52:08;;;;;;;38.80;21.65;;;;;;;;;;6245174;23;20157;-83
2021/01/17 02:54:35;;;;;;;37.92;21.83;;;;;;;;;;6276688;22;20334;-84
2021/01/17 02:57:11;;;;;;;42.40;21.35;;;;;;;;;;6227308;23;20108;-83
2021/01/17 02:59:38;;;;;;;38.35;21.95;;;;;;;;;;6253875;23;20028;-84
2021/01/17 03:02:06;;;;;;;40.47;21.83;;;;;;;;;;6220105;23;20195;-84
2021/01/17 03:04:34;;;;;;;38.70;21.27;;;;;;;;;;6219088;23;20034;-83
2021/01/17 03:07:02;;;;;;;40.60;20.80;;;;;;;;;;6245510;23;20024;-84
2021/01/17 03:09:31;;;;;;;34.80;19.90;;;;;;;;;;6246832;23;20035;-84
2021/01/17 03:12:07;;;;;;;41.28;23.08;;;;;;;;;;6218190;23;20024;-84
2021/01/17 03:14:39;;;;;;;35.75;19.75;;;;;;;;;;6246180;23;20081;-83
2021/01/17 03:17:06;;;;;;;38.60;21.60;;;;;;;;;;6220485;23;20024;-84
2021/01/17 03:19:33;;;;;;;38.17;20.60;;;;;;;;;;6220004;23;20024;-84
2021/01/17 03:21:59;;;;;;;36.83;20.52;;;;;;;;;;6246646;23;20027;-84
2021/01/17 03:24:30;;;;;;;39.97;20.95;;;;;;;;;;6219527;23;20024;-84
2021/01/17 03:26:59;;;;;;;35.45;19.98;;;;;;;;;;6245641;23;20024;-84
2021/01/17 03:29:25;;;;;;;35.88;20.13;;;;;;;;;;6248294;23;20035;-84
2021/01/17 03:31:54;;;;;;;35.17;17.98;;;;;;;;;;6246651;23;20024;-84
2021/01/17 03:34:26;;;;;;;37.03;19.48;;;;;;;;;;6218814;23;20061;-84
2021/01/17 03:36:55;;;;;;;37.63;20.70;;;;;;;;;;6220909;23;20152;-84
2021/01/17 03:39:22;;;;;;;36.10;19.75;;;;;;;;;;6246664;23;20032;-84
2021/01/17 03:41:48;;;;;;;31.60;17.33;;;;;;;;;;6221466;23;20105;-84
2021/01/17 03:44:23;;;;;;;38.15;20.73;;;;;;;;;;6220784;23;20024;-84
2021/01/17 03:46:52;;;;;;;34.28;19.58;;;;;;;;;;6220503;23;20280;-84
2021/01/17 03:49:18;;;;;;;35.30;18.10;;;;;;;;;;6244880;23;20024;-84
2021/01/17 03:51:49;;;;;;;32.85;17.92;;;;;;;;;;6268771;22;20027;-84
2021/01/17 03:54:22;;;;;;;29.45;17.20;;;;;;;;;;6244883;23;20028;-84
2021/01/17 03:56:49;;;;;;;34.60;19.25;;;;;;;;;;6219677;23;20024;-84
2021/01/17 03:59:19;;;;;;;33.17;18.65;;;;;;;;;;6221644;23;20062;-84
2021/01/17 04:01:53;;;;;;;31.48;17.45;;;;;;;;;;6221403;23;20024;-84
2021/01/17 04:04:22;;;;;;;30.38;17.20;;;;;;;;;;6219868;23;20414;-84
2021/01/17 04:06:48;;;;;;;34.83;17.67;;;;;;;;;;6245339;23;20188;-84
2021/01/17 04:09:16;;;;;;;30.30;17.10;;;;;;;;;;6246781;23;20056;-85
2021/01/17 04:11:42;;;;;;;33.05;18.20;;;;;;;;;;6245927;22;20477;-84
2021/01/17 04:14:08;;;;;;;33.17;16.73;;;;;;;;;;6271491;22;20074;-83
2021/01/17 04:16:34;;;;;;;31.33;17.23;;;;;;;;;;6220730;23;20032;-84
2021/01/17 04:19:01;;;;;;;28.23;16.80;;;;;;;;;;6246708;23;20243;-84
2021/01/17 04:21:27;;;;;;;31.05;16.23;;;;;;;;;;6233225;22;20039;-84
2021/01/17 04:23:55;;;;;;;31.50;17.35;;;;;;;;;;6267608;22;20257;-84
2021/01/17 04:26:22;;;;;;;30.95;16.80;;;;;;;;;;6240887;23;20012;-84
2021/01/17 04:28:48;;;;;;;30.90;15.65;;;;;;;;;;6226787;23;20398;-84
2021/01/17 04:31:15;;;;;;;34.55;16.73;;;;;;;;;;6248238;23;20445;-84
2021/01/17 04:33:41;;;;;;;28.02;16.10;;;;;;;;;;6229502;23;20072;-84
2021/01/17 04:36:08;;;;;;;28.58;16.15;;;;;;;;;;6290487;22;20016;-84
2021/01/17 04:38:34;;;;;;;26.50;14.57;;;;;;;;;;6230166;23;20032;-84
2021/01/17 04:41:02;;;;;;;28.42;16.38;;;;;;;;;;6221217;23;20028;-84
2021/01/17 04:43:32;;;;;;;25.30;15.80;;;;;;;;;;6246204;23;20028;-85
2021/01/17 04:45:59;;;;;;;30.80;16.08;;;;;;;;;;6222162;23;20081;-84
2021/01/17 04:48:26;;;;;;;24.85;14.63;;;;;;;;;;6222364;23;20192;-84
2021/01/17 04:50:56;;;;;;;25.83;14.73;;;;;;;;;;6222561;23;20070;-84
2021/01/17 04:53:23;;;;;;;27.17;15.35;;;;;;;;;;6229772;23;20077;-84
2021/01/17 04:55:49;;;;;;;26.60;14.90;;;;;;;;;;6236777;23;20024;-84
2021/01/17 04:58:19;;;;;;;25.75;15.05;;;;;;;;;;6252913;23;20024;-84
2021/01/17 05:00:56;;;;;;;29.73;14.80;;;;;;;;;;6220312;23;20176;-84
2021/01/17 05:03:25;;;;;;;27.10;14.70;;;;;;;;;;6190040;23;20020;-84
2021/01/17 05:05:51;;;;;;;24.08;15.07;;;;;;;;;;6217517;23;20025;-84
2021/01/17 05:08:26;;;;;;;25.85;14.07;;;;;;;;;;6215783;23;20047;-84
2021/01/17 05:11:16;;;;;;;27.83;14.85;;;;;;;;;;6190445;23;20024;-84
2021/01/17 05:13:59;;;;;;;26.08;14.55;;;;;;;;;;6122761;23;20076;-84
2021/01/17 05:16:30;;;;;;;27.88;15.00;;;;;;;;;;6191535;23;20036;-84
2021/01/17 05:19:00;;;;;;;25.27;14.18;;;;;;;;;;6217423;23;20437;-84
2021/01/17 05:21:31;;;;;;;26.17;15.05;;;;;;;;;;6191847;23;20107;-84
2021/01/17 05:24:01;;;;;;;22.88;13.93;;;;;;;;;;6191205;23;20091;-84
2021/01/17 05:26:28;;;;;;;26.98;15.40;;;;;;;;;;6217562;23;20020;-84
2021/01/17 05:28:54;;;;;;;23.17;14.00;;;;;;;;;;6216688;23;20028;-84
2021/01/17 05:31:23;;;;;;;25.48;14.30;;;;;;;;;;6216816;23;20025;-84
2021/01/17 05:33:49;;;;;;;26.42;14.93;;;;;;;;;;6190454;23;20106;-84
2021/01/17 05:36:18;;;;;;;25.38;13.60;;;;;;;;;;6217810;23;20040;-84
2021/01/17 05:39:01;;;;;;;27.35;14.18;;;;;;;;;;6218228;23;20030;-84
2021/01/17 05:41:27;;;;;;;25.50;15.00;;;;;;;;;;6218075;23;20357;-84
2021/01/17 05:43:53;;;;;;;26.98;14.20;;;;;;;;;;6190160;23;20029;-84
2021/01/17 05:46:19;;;;;;;24.08;13.77;;;;;;;;;;6191280;23;20044;-84
2021/01/17 05:49:07;;;;;;;23.80;13.77;;;;;;;;;;6189400;23;20029;-84
2021/01/17 05:51:36;;;;;;;27.55;13.43;;;;;;;;;;6191562;23;20029;-84
2021/01/17 05:54:07;;;;;;;27.63;15.27;;;;;;;;;;6216483;23;20087;-84
2021/01/17 05:56:35;;;;;;;23.50;13.55;;;;;;;;;;6190021;23;20055;-84
2021/01/17 05:59:02;;;;;;;29.10;14.98;;;;;;;;;;6191593;23;20060;-85
2021/01/17 06:01:32;;;;;;;27.60;14.80;;;;;;;;;;6197488;23;20103;-84
2021/01/17 06:04:07;;;;;;;28.83;14.10;;;;;;;;;;6221443;23;20035;-84
2021/01/17 06:06:34;;;;;;;28.02;14.90;;;;;;;;;;6221706;23;20051;-84
2021/01/17 06:09:01;;;;;;;25.00;12.75;;;;;;;;;;6246991;23;20119;-84
2021/01/17 06:11:28;;;;;;;25.77;14.50;;;;;;;;;;6246677;23;20043;-84
2021/01/17 06:13:58;;;;;;;22.65;13.13;;;;;;;;;;6220303;23;20058;-84
2021/01/17 06:16:40;;;;;;;26.85;13.02;;;;;;;;;;6247398;23;20112;-84
2021/01/17 06:19:09;;;;;;;24.33;14.77;;;;;;;;;;6247245;23;20040;-84
2021/01/17 06:21:36;;;;;;;24.38;13.65;;;;;;;;;;6247543;23;20024;-84
2021/01/17 06:24:06;;;;;;;29.40;14.05;;;;;;;;;;6221727;23;20145;-84
2021/01/17 06:26:33;;;;;;;22.10;12.25;;;;;;;;;;6221243;23;20047;-84
2021/01/17 06:29:03;;;;;;;22.90;13.25;;;;;;;;;;6248062;23;20031;-84
2021/01/17 06:31:30;;;;;;;25.70;13.27;;;;;;;;;;6247631;23;20295;-84
2021/01/17 06:34:07;;;;;;;24.38;12.85;;;;;;;;;;6221148;23;20028;-84
2021/01/17 06:36:34;;;;;;;26.05;13.88;;;;;;;;;;6247410;23;20054;-84
2021/01/17 06:39:00;;;;;;;24.90;13.45;;;;;;;;;;6247828;23;20028;-84
2021/01/17 06:41:39;;;;;;;24.75;13.07;;;;;;;;;;6247168;23;20035;-84
2021/01/17 06:44:16;;;;;;;23.58;12.82;;;;;;;;;;6219644;23;20124;-84
2021/01/17 06:46:46;;;;;;;24.33;13.38;;;;;;;;;;6246928;23;20083;-84
2021/01/17 06:49:15;;;;;;;24.90;12.95;;;;;;;;;;6219890;23;20102;-84
2021/01/17 06:51:42;;;;;;;26.80;13.93;;;;;;;;;;6218548;23;20055;-84
2021/01/17 06:54:11;;;;;;;24.70;13.20;;;;;;;;;;6220448;23;20028;-84
2021/01/17 06:56:37;;;;;;;23.58;12.50;;;;;;;;;;6246622;23;20024;-84
2021/01/17 06:59:04;;;;;;;24.70;13.50;;;;;;;;;;6246111;23;20034;-84
2021/01/17 07:01:30;;;;;;;26.70;14.13;;;;;;;;;;6220938;23;20028;-84
2021/01/17 07:03:57;;;;;;;23.85;13.70;;;;;;;;;;6220285;23;20016;-84
2021/01/17 07:06:42;;;;;;;26.42;13.30;;;;;;;;;;6220819;23;20074;-85
2021/01/17 07:09:41;;;;;;;23.35;13.38;;;;;;;;;;6247481;23;20401;-84
2021/01/17 07:12:10;;;;;;;26.27;14.10;;;;;;;;;;6265081;22;20024;-84
2021/01/17 07:14:39;;;;;;;23.27;12.98;;;;;;;;;;6220430;23;20035;-84
2021/01/17 07:17:08;;;;;;;25.88;13.85;;;;;;;;;;6246273;23;20410;-84
2021/01/17 07:19:39;;;;;;;25.88;14.10;;;;;;;;;;6220432;23;20066;-84
2021/01/17 07:22:06;;;;;;;25.15;13.32;;;;;;;;;;6220075;23;20355;-84
2021/01/17 07:24:33;;;;;;;24.90;12.90;;;;;;;;;;6246678;23;20115;-84
2021/01/17 07:27:02;;;;;;;27.52;14.18;;;;;;;;;;6220803;23;20103;-84
2021/01/17 07:29:34;;;;;;;28.05;14.80;;;;;;;;;;6218658;23;20112;-84
2021/01/17 07:32:00;;;;;;;22.02;13.18;;;;;;;;;;6246450;23;20024;-84
2021/01/17 07:34:29;;;;;;;22.88;13.40;;;;;;;;;;6247464;23;20020;-84
2021/01/17 07:36:59;;;;;;;27.08;14.65;;;;;;;;;;6219888;23;20034;-84
2021/01/17 07:39:32;;;;;;;26.50;14.80;;;;;;;;;;6223451;23;20028;-84
2021/01/17 07:42:00;;;;;;;27.45;13.35;;;;;;;;;;6247869;23;20030;-84
2021/01/17 07:44:31;;;;;;;24.23;13.38;;;;;;;;;;6222099;23;20386;-84
2021/01/17 07:47:05;;;;;;;23.67;13.68;;;;;;;;;;6234518;23;20224;-84
2021/01/17 07:49:44;;;;;;;32.35;17.55;;;;;;;;;;6233585;23;20054;-84
2021/01/17 07:52:11;;;;;;;24.63;13.50;;;;;;;;;;6222817;23;20034;-84
2021/01/17 07:54:40;;;;;;;23.10;13.00;;;;;;;;;;6224355;23;20040;-84
2021/01/17 07:57:07;;;;;;;23.95;13.75;;;;;;;;;;6249023;23;20172;-84
2021/01/17 07:59:34;;;;;;;24.08;14.25;;;;;;;;;;6220928;23;20097;-84
2021/01/17 08:02:01;;;;;;;22.65;13.95;;;;;;;;;;6219870;23;20071;-84
2021/01/17 08:04:28;;;;;;;24.38;14.25;;;;;;;;;;6230916;23;20035;-84
2021/01/17 08:06:55;;;;;;;26.08;14.38;;;;;;;;;;6239865;22;20219;-84
2021/01/17 08:09:39;;;;;;;26.17;15.15;;;;;;;;;;6265319;22;20335;-84
2021/01/17 08:12:06;;;;;;;25.77;14.50;;;;;;;;;;6223240;23;20071;-84
2021/01/17 08:14:36;;;;;;;26.35;13.60;;;;;;;;;;6256557;23;20129;-84
2021/01/17 08:17:04;;;;;;;25.83;13.55;;;;;;;;;;6239774;22;20020;-85
2021/01/17 08:19:38;;;;;;;24.42;13.52;;;;;;;;;;6239199;23;20059;-84
2021/01/17 08:22:31;;;;;;;24.63;14.30;;;;;;;;;;6238959;23;20178;-84
2021/01/17 08:25:05;;;;;;;23.23;12.32;;;;;;;;;;6227662;22;20035;-84
2021/01/17 08:27:32;;;;;;;29.10;14.48;;;;;;;;;;6251854;23;20028;-83
2021/01/17 08:30:07;;;;;;;24.48;13.60;;;;;;;;;;6221881;23;20028;-84
2021/01/17 08:32:40;;;;;;;27.75;14.40;;;;;;;;;;6251736;23;20032;-84
2021/01/17 08:35:23;;;;;;;28.40;14.90;;;;;;;;;;6225142;23;20039;-84
2021/01/17 08:38:09;;;;;;;28.42;14.43;;;;;;;;;;6226211;23;20406;-84
2021/01/17 08:40:46;;;;;;;27.13;14.23;;;;;;;;;;6229690;23;20074;-85
2021/01/17 08:43:13;;;;;;;27.55;14.90;;;;;;;;;;6223504;23;20071;-85
2021/01/17 08:45:40;;;;;;;28.90;15.20;;;;;;;;;;6250301;23;20024;-84
2021/01/17 08:48:15;;;;;;;33.60;16.17;;;;;;;;;;6249646;23;20043;-84
2021/01/17 08:50:46;;;;;;;26.98;15.02;;;;;;;;;;6224791;23;20020;-85
2021/01/17 08:53:15;;;;;;;28.42;14.82;;;;;;;;;;6223160;23;20024;-84
2021/01/17 08:55:42;;;;;;;27.33;15.38;;;;;;;;;;6223715;23;20038;-84
2021/01/17 08:58:09;;;;;;;26.10;14.25;;;;;;;;;;6225190;23;20082;-84
2021/01/17 09:00:51;;;;;;;25.00;14.10;;;;;;;;;;6221606;23;20031;-84
2021/01/17 09:03:36;;;;;;;25.98;14.23;;;;;;;;;;6223968;23;20296;-84
2021/01/17 09:06:26;;;;;;;30.38;15.63;;;;;;;;;;6222979;23;20024;-84
2021/01/17 09:08:52;;;;;;;30.92;15.35;;;;;;;;;;6229891;23;20024;-84
2021/01/17 09:11:28;;;;;;;25.65;14.93;;;;;;;;;;6222880;23;20028;-84
2021/01/17 09:14:13;;;;;;;29.45;14.90;;;;;;;;;;6222802;23;20028;-84
2021/01/17 09:16:53;;;;;;;27.35;14.48;;;;;;;;;;6223635;23;20042;-84
2021/01/17 09:19:22;;;;;;;30.40;16.17;;;;;;;;;;6251301;23;20231;-85
2021/01/17 09:21:53;;;;;;;27.92;15.57;;;;;;;;;;6223176;23;20020;-84
2021/01/17 09:24:20;;;;;;;28.77;15.27;;;;;;;;;;6222244;23;20099;-84
2021/01/17 09:26:48;;;;;;;27.17;16.02;;;;;;;;;;6223018;23;20020;-84
2021/01/17 09:29:29;;;;;;;28.38;15.45;;;;;;;;;;6223505;23;20028;-84
2021/01/17 09:31:57;;;;;;;31.88;16.45;;;;;;;;;;6251164;23;20421;-83
2021/01/17 09:34:28;;;;;;;30.35;15.30;;;;;;;;;;6222525;23;20070;-84
2021/01/17 09:36:58;;;;;;;30.35;15.85;;;;;;;;;;6223853;23;20519;-84
2021/01/17 09:39:32;;;;;;;33.15;16.75;;;;;;;;;;6247736;23;20028;-83
2021/01/17 09:41:58;;;;;;;28.85;15.23;;;;;;;;;;6222439;23;20055;-83
2021/01/17 09:44:25;;;;;;;30.08;15.40;;;;;;;;;;6249535;23;20048;-83
2021/01/17 09:46:52;;;;;;;32.63;16.65;;;;;;;;;;6248902;23;20076;-84
2021/01/17 09:49:26;;;;;;;31.17;16.30;;;;;;;;;;6249126;22;20078;-84
2021/01/17 09:51:57;;;;;;;26.48;14.82;;;;;;;;;;6250911;23;20074;-84
2021/01/17 09:54:24;;;;;;;28.13;15.05;;;;;;;;;;6248931;23;20052;-84
2021/01/17 09:57:12;;;;;;;30.40;15.77;;;;;;;;;;6221908;23;20024;-84
2021/01/17 09:59:39;;;;;;;27.10;15.07;;;;;;;;;;6249766;23;20038;-84
2021/01/17 10:02:06;;;;;;;28.05;15.63;;;;;;;;;;6222314;23;20028;-84
2021/01/17 10:04:34;;;;;;;27.35;14.77;;;;;;;;;;6251437;23;20075;-85
2021/01/17 10:07:02;;;;;;;29.10;14.98;;;;;;;;;;6226053;23;20103;-85
2021/01/17 10:09:30;;;;;;;25.65;15.07;;;;;;;;;;6223128;23;20028;-84
2021/01/17 10:12:03;;;;;;;25.55;14.18;;;;;;;;;;6249510;23;20359;-85
2021/01/17 10:14:34;;;;;;;30.80;15.38;;;;;;;;;;6222487;23;20047;-84
2021/01/17 10:17:07;;;;;;;26.50;14.27;;;;;;;;;;6225337;23;20478;-84
2021/01/17 10:19:40;;;;;;;27.20;14.75;;;;;;;;;;6221264;23;20047;-84
2021/01/17 10:22:10;;;;;;;27.50;14.70;;;;;;;;;;6225589;23;20244;-85
2021/01/17 10:24:37;;;;;;;32.20;16.35;;;;;;;;;;6249861;23;20199;-84
2021/01/17 10:27:05;;;;;;;25.52;14.68;;;;;;;;;;6222762;23;20036;-84
2021/01/17 10:29:34;;;;;;;30.50;16.10;;;;;;;;;;6225606;23;20024;-83
2021/01/17 10:32:13;;;;;;;29.23;15.98;;;;;;;;;;6249506;23;20047;-84
2021/01/17 10:35:03;;;;;;;27.65;15.00;;;;;;;;;;6249577;23;20038;-84
2021/01/17 10:37:44;;;;;;;29.15;15.40;;;;;;;;;;6223310;23;20135;-83
2021/01/17 10:40:11;;;;;;;30.80;15.23;;;;;;;;;;6229820;23;20213;-85
2021/01/17 10:42:50;;;;;;;26.65;15.05;;;;;;;;;;6258547;23;20120;-83
2021/01/17 10:45:27;;;;;;;31.50;16.02;;;;;;;;;;6222714;23;20196;-85
2021/01/17 10:47:54;;;;;;;31.67;16.55;;;;;;;;;;6220956;23;20183;-85
2021/01/17 10:50:28;;;;;;;30.10;15.98;;;;;;;;;;6221479;23;20116;-82
2021/01/17 10:53:15;;;;;;;30.27;16.45;;;;;;;;;;6221290;23;20019;-85
2021/01/17 10:55:54;;;;;;;32.78;15.90;;;;;;;;;;6247466;23;20027;-84
2021/01/17 10:58:40;;;;;;;32.00;17.38;;;;;;;;;;6249299;23;20035;-84
2021/01/17 11:01:07;;;;;;;39.53;17.77;;;;;;;;;;6220391;23;20027;-84
2021/01/17 11:03:35;;;;;;;32.13;17.35;;;;;;;;;;6217793;23;20032;-84
2021/01/17 11:06:23;;;;;;;28.45;15.57;;;;;;;;;;6191698;23;20021;-84
2021/01/17 11:08:51;;;;;;;31.42;17.50;;;;;;;;;;6193522;23;20020;-84
2021/01/17 11:11:18;;;;;;;34.28;16.92;;;;;;;;;;6218536;23;20589;-84
2021/01/17 11:13:55;;;;;;;28.60;15.50;;;;;;;;;;6190401;23;20157;-84
2021/01/17 11:16:40;;;;;;;30.95;17.00;;;;;;;;;;6215424;23;20025;-84
2021/01/17 11:19:35;;;;;;;29.98;16.02;;;;;;;;;;6191372;23;20036;-85
2021/01/17 11:22:02;;;;;;;28.10;14.60;;;;;;;;;;6214833;23;20024;-85
2021/01/17 11:24:33;;;;;;;29.45;15.18;;;;;;;;;;6188974;23;20048;-84
2021/01/17 11:27:09;;;;;;;30.30;16.25;;;;;;;;;;6214536;23;20294;-84
2021/01/17 11:29:35;;;;;;;;;;;;;;;;;;6190870;23;20024;-85
2021/01/17 11:32:02;;;;;;;28.45;14.85;;;;;;;;;;6216238;23;19927;-85
2021/01/17 11:34:32;;;;;;;28.52;16.08;;;;;;;;;;6216705;23;20040;-84
2021/01/17 11:36:58;;;;;;;33.25;16.60;;;;;;;;;;6195880;23;20020;-84
2021/01/17 11:39:26;;;;;;;31.02;17.23;;;;;;;;;;6188505;23;20079;-84
2021/01/17 11:41:56;;;;;;;29.33;14.30;;;;;;;;;;6188458;23;20045;-84
2021/01/17 11:44:24;;;;;;;32.60;17.25;;;;;;;;;;6188075;23;20025;-84
2021/01/17 11:46:54;;;;;;;29.90;16.25;;;;;;;;;;6188884;23;20088;-84
2021/01/17 11:49:24;;;;;;;28.55;15.93;;;;;;;;;;6204796;23;20032;-84
2021/01/17 11:52:12;;;;;;;29.02;15.63;;;;;;;;;;6206390;23;20018;-84
2021/01/17 11:54:38;;;;;;;44.47;21.67;;;;;;;;;;6219956;23;20025;-84
2021/01/17 11:57:05;;;;;;;31.30;16.95;;;;;;;;;;6215942;23;20039;-84
2021/01/17 11:59:33;;;;;;;31.10;17.38;;;;;;;;;;6189801;23;20134;-84
2021/01/17 12:02:16;;;;;;;29.67;16.77;;;;;;;;;;6211774;22;20047;-84
2021/01/17 12:04:54;;;;;;;28.83;15.07;;;;;;;;;;6236111;22;20032;-84
2021/01/17 12:07:20;;;;;;;30.02;16.27;;;;;;;;;;6219034;23;20035;-84
2021/01/17 12:10:00;;;;;;;30.33;16.70;;;;;;;;;;6219163;23;20032;-84
2021/01/17 12:12:32;;;;;;;32.38;17.98;;;;;;;;;;6218626;23;20028;-84
2021/01/17 12:14:59;;;;;;;35.35;17.35;;;;;;;;;;6216861;23;20020;-84
2021/01/17 12:17:25;;;;;;;31.00;17.23;;;;;;;;;;6245114;23;20032;-84
2021/01/17 12:19:58;;;;;;;34.22;18.60;;;;;;;;;;6245316;23;20051;-84
2021/01/17 12:22:27;;;;;;;32.58;17.15;;;;;;;;;;6246954;23;20028;-84
2021/01/17 12:24:54;;;;;;;36.25;18.15;;;;;;;;;;6244851;23;20074;-84
2021/01/17 12:27:20;;;;;;;33.58;17.63;;;;;;;;;;6246119;23;20282;-84
2021/01/17 12:29:47;;;;;;;32.75;17.83;;;;;;;;;;6245524;23;20078;-84
2021/01/17 12:32:13;;;;;;;33.67;17.88;;;;;;;;;;6216495;23;20244;-84
2021/01/17 12:34:40;;;;;;;37.00;17.25;;;;;;;;;;6245265;23;20191;-84
2021/01/17 12:37:06;;;;;;;34.92;18.77;;;;;;;;;;6245980;23;20028;-84
2021/01/17 12:39:33;;;;;;;31.30;16.75;;;;;;;;;;6221096;23;20028;-84
2021/01/17 12:41:59;;;;;;;32.03;17.90;;;;;;;;;;6220111;23;20047;-84
2021/01/17 12:44:26;;;;;;;31.15;18.65;;;;;;;;;;6247902;23;20020;-84
2021/01/17 12:46:53;;;;;;;33.83;18.85;;;;;;;;;;6219666;23;20023;-84
2021/01/17 12:49:20;;;;;;;43.95;22.67;;;;;;;;;;6219691;23;20027;-84
2021/01/17 12:51:52;;;;;;;32.88;18.30;;;;;;;;;;6243459;23;20184;-84
2021/01/17 12:54:19;;;;;;;32.22;17.27;;;;;;;;;;6217322;23;20034;-84
2021/01/17 12:56:49;;;;;;;42.47;20.73;;;;;;;;;;6242821;23;20076;-84
2021/01/17 12:59:16;;;;;;;31.38;17.67;;;;;;;;;;6243770;23;20074;-84
2021/01/17 13:01:44;;;;;;;36.10;18.90;;;;;;;;;;6222466;23;20110;-84
2021/01/17 13:04:14;;;;;;;35.67;17.95;;;;;;;;;;6220898;23;20020;-84
2021/01/17 13:06:49;;;;;;;40.30;21.85;;;;;;;;;;6247319;23;20338;-84
2021/01/17 13:09:18;;;;;;;38.72;20.73;;;;;;;;;;6220187;23;20028;-84
2021/01/17 13:12:05;;;;;;;40.42;20.98;;;;;;;;;;6218099;23;20055;-84
2021/01/17 13:14:32;;;;;;;41.53;21.60;;;;;;;;;;6270557;22;20024;-83
2021/01/17 13:16:58;;;;;;;39.90;20.88;;;;;;;;;;6244596;23;20024;-84
2021/01/17 13:19:39;;;;;;;40.97;21.58;;;;;;;;;;6218977;23;20047;-84
2021/01/17 13:22:05;;;;;;;39.20;21.40;;;;;;;;;;6217923;23;20032;-83
2021/01/17 13:24:33;;;;;;;35.70;20.20;;;;;;;;;;6269569;22;20016;-84
2021/01/17 13:27:00;;;;;;;41.20;21.42;;;;;;;;;;6269658;22;20313;-84
2021/01/17 13:29:26;;;;;;;40.10;21.20;;;;;;;;;;6244022;22;20028;-84
2021/01/17 13:31:52;;;;;;;41.38;22.10;;;;;;;;;;6268395;22;20068;-84
2021/01/17 13:34:27;;;;;;;44.00;21.70;;;;;;;;;;6233193;23;20036;-84
2021/01/17 13:36:53;;;;;;;38.72;20.60;;;;;;;;;;6257052;23;20054;-84
2021/01/17 13:39:19;;;;;;;45.58;22.55;;;;;;;;;;6227401;23;20035;-84
2021/01/17 13:41:52;;;;;;;45.45;23.23;;;;;;;;;;6227070;23;20035;-84
2021/01/17 13:44:18;;;;;;;42.88;22.98;;;;;;;;;;6246530;23;20024;-84
2021/01/17 13:46:49;;;;;;;43.97;21.98;;;;;;;;;;6245752;23;20409;-84
2021/01/17 13:49:28;;;;;;;52.22;25.65;;;;;;;;;;6220484;23;20246;-84
2021/01/17 13:52:00;;;;;;;48.00;24.77;;;;;;;;;;6220960;23;20020;-85
2021/01/17 13:54:27;;;;;;;45.60;23.90;;;;;;;;;;6218700;23;20028;-84
2021/01/17 13:56:57;;;;;;;45.38;23.52;;;;;;;;;;6245234;23;20313;-85
2021/01/17 13:59:25;;;;;;;50.03;27.02;;;;;;;;;;6244245;23;20032;-85
2021/01/17 14:01:58;;;;;;;47.70;23.88;;;;;;;;;;6231905;23;20107;-84
2021/01/17 14:04:25;;;;;;;55.97;29.00;;;;;;;;;;6189456;23;20020;-85
2021/01/17 14:06:55;;;;;;;46.08;24.45;;;;;;;;;;6189734;23;20389;-85
2021/01/17 14:09:22;;;;;;;55.55;25.27;;;;;;;;;;6194194;23;20191;-84
2021/01/17 14:11:55;;;;;;;54.53;27.25;;;;;;;;;;6204133;23;20019;-85
2021/01/17 14:14:22;;;;;;;47.58;23.50;;;;;;;;;;6204790;23;20276;-84
2021/01/17 14:16:52;;;;;;;46.10;24.63;;;;;;;;;;6207901;23;20098;-84
2021/01/17 14:19:27;;;;;;;41.60;22.70;;;;;;;;;;6230986;23;20060;-84
2021/01/17 14:21:54;;;;;;;46.78;24.23;;;;;;;;;;6190043;23;20028;-84
2021/01/17 14:24:27;;;;;;;43.15;22.35;;;;;;;;;;6166479;23;20016;-84
2021/01/17 14:26:53;;;;;;;43.72;23.85;;;;;;;;;;6188623;23;20148;-84
2021/01/17 14:29:22;;;;;;;50.20;25.08;;;;;;;;;;6189242;23;20249;-84
2021/01/17 14:31:50;;;;;;;46.40;23.48;;;;;;;;;;6216736;23;20070;-84
2021/01/17 14:34:29;;;;;;;45.65;23.90;;;;;;;;;;6215359;23;20032;-83
2021/01/17 14:36:59;;;;;;;45.08;23.25;;;;;;;;;;6187185;23;20299;-83